createdAt,value
2017-08-23T00:04:17.108Z,67.27
2017-08-23T00:09:19.487Z,66.20
2017-08-23T00:14:21.866Z,66.52
2017-08-23T00:19:24.242Z,66.27
2017-08-23T00:24:26.645Z,66.12
2017-08-23T00:29:28.864Z,65.91
2017-08-23T00:34:31.136Z,66.35
2017-08-23T00:39:33.410Z,67.06
2017-08-23T00:44:35.889Z,68.71
2017-08-23T00:49:38.298Z,68.85
2017-08-23T00:54:40.681Z,66.63
2017-08-23T00:59:43.026Z,68.41
2017-08-23T01:04:45.198Z,69.94
2017-08-23T01:09:47.449Z,70.34
2017-08-23T01:14:49.644Z,70.89
2017-08-23T01:19:52.063Z,72.12
2017-08-23T01:24:54.389Z,72.47
2017-08-23T01:29:56.692Z,72.86
2017-08-23T01:34:59.090Z,72.92
2017-08-23T01:40:01.364Z,71.74
2017-08-23T01:45:03.516Z,71.39
2017-08-23T01:50:05.844Z,71.00
2017-08-23T01:55:08.113Z,71.05
2017-08-23T02:00:10.435Z,70.49
2017-08-23T02:05:12.860Z,70.04
2017-08-23T02:10:15.069Z,69.60
2017-08-23T02:15:17.166Z,69.13
2017-08-23T02:20:19.390Z,69.35
2017-08-23T02:25:22.279Z,68.32
2017-08-23T02:30:24.584Z,67.87
2017-08-23T02:35:26.904Z,69.83
2017-08-23T02:40:29.135Z,69.81
2017-08-23T02:45:31.777Z,70.30
2017-08-23T02:50:33.957Z,70.41
2017-08-23T02:55:36.194Z,70.01
2017-08-23T03:00:38.598Z,70.66
2017-08-23T03:05:40.960Z,70.49
2017-08-23T03:10:43.364Z,71.21
2017-08-23T03:15:45.813Z,71.32
2017-08-23T03:20:48.367Z,71.84
2017-08-23T03:25:50.927Z,71.87
2017-08-23T03:30:53.632Z,71.72
2017-08-23T03:35:56.176Z,70.79
2017-08-23T03:40:58.744Z,70.58
2017-08-23T03:46:01.035Z,70.90
2017-08-23T03:51:03.518Z,69.84
2017-08-23T03:56:07.774Z,71.06
2017-08-23T04:01:10.473Z,70.76
2017-08-23T04:06:15.888Z,69.02
2017-08-23T04:11:19.108Z,69.42
2017-08-23T04:16:22.035Z,67.95
2017-08-23T04:21:25.203Z,68.63
2017-08-23T04:26:28.011Z,69.14
2017-08-23T04:31:31.880Z,70.41
2017-08-23T04:36:33.828Z,71.42
2017-08-23T04:41:36.126Z,71.20
2017-08-23T04:46:38.501Z,70.28
2017-08-23T04:51:40.633Z,71.51
2017-08-23T04:56:43.648Z,71.30
2017-08-23T05:01:45.932Z,69.93
2017-08-23T05:06:48.213Z,70.28
2017-08-23T05:11:50.513Z,70.80
2017-08-23T05:16:53.125Z,70.57
2017-08-23T05:21:55.465Z,69.60
2017-08-23T05:26:57.836Z,69.39
2017-08-23T05:32:00.140Z,69.63
2017-08-23T05:37:02.421Z,69.34
2017-08-23T05:42:04.675Z,68.98
2017-08-23T05:47:06.867Z,68.58
2017-08-23T05:52:09.602Z,68.39
2017-08-23T05:57:11.835Z,67.81
2017-08-23T06:02:14.057Z,67.59
2017-08-23T06:07:16.446Z,67.56
2017-08-23T06:12:19.328Z,67.61
2017-08-23T06:17:21.596Z,66.75
2017-08-23T06:22:23.982Z,66.13
2017-08-23T06:27:26.276Z,65.50
2017-08-23T06:32:28.685Z,64.70
2017-08-23T06:37:31.109Z,64.46
2017-08-23T06:42:33.500Z,64.63
2017-08-23T06:47:35.892Z,63.29
2017-08-23T06:52:42.009Z,62.36
2017-08-23T06:57:46.327Z,62.31
2017-08-23T07:02:49.175Z,62.41
2017-08-23T07:07:51.653Z,61.37
2017-08-23T07:12:53.993Z,60.96
2017-08-23T07:17:56.426Z,60.84
2017-08-23T07:23:00.007Z,59.97
2017-08-23T07:28:02.384Z,59.39
2017-08-23T07:33:04.554Z,58.99
2017-08-23T07:38:07.099Z,58.27
2017-08-23T07:43:09.681Z,58.33
2017-08-23T07:48:12.809Z,57.22
2017-08-23T07:53:16.217Z,56.73
2017-08-23T07:58:19.795Z,56.62
2017-08-23T08:03:23.153Z,56.47
2017-08-23T08:08:26.057Z,56.13
2017-08-23T08:13:29.292Z,56.01
2017-08-23T08:18:31.987Z,54.84
2017-08-23T08:23:34.278Z,53.46
2017-08-23T08:28:37.704Z,53.60
2017-08-23T08:33:41.029Z,53.28
2017-08-23T08:38:43.892Z,53.04
2017-08-23T08:43:46.926Z,51.41
2017-08-23T08:48:49.900Z,49.04
2017-08-23T08:53:53.450Z,47.80
2017-08-23T08:58:55.815Z,47.84
2017-08-23T09:03:58.278Z,48.87
2017-08-23T09:09:00.574Z,47.63
2017-08-23T09:14:02.883Z,48.00
2017-08-23T09:19:10.556Z,47.23
2017-08-23T09:24:14.686Z,47.16
2017-08-23T09:29:19.329Z,46.51
2017-08-23T09:34:24.534Z,47.22
2017-08-23T09:39:26.846Z,47.12
2017-08-23T09:44:29.460Z,47.65
2017-08-23T09:49:31.495Z,46.25
2017-08-23T09:54:33.724Z,45.15
2017-08-23T09:59:35.921Z,45.19
2017-08-23T10:04:38.103Z,44.35
2017-08-23T10:09:40.431Z,44.49
2017-08-23T10:14:42.683Z,44.70
2017-08-23T10:19:45.115Z,44.52
2017-08-23T10:24:47.545Z,44.47
2017-08-23T10:29:49.869Z,41.95
2017-08-23T10:34:52.193Z,40.90
2017-08-23T10:39:54.538Z,40.92
2017-08-23T10:44:57.827Z,40.99
2017-08-23T10:50:00.066Z,41.40
2017-08-23T10:55:02.390Z,41.56
2017-08-23T11:00:04.565Z,40.25
2017-08-23T11:05:06.983Z,41.52
2017-08-23T11:10:09.206Z,40.56
2017-08-23T11:15:11.383Z,40.61
2017-08-23T11:20:13.744Z,40.52
2017-08-23T11:25:16.056Z,40.44
2017-08-23T11:30:18.375Z,39.90
2017-08-23T11:35:20.729Z,40.02
2017-08-23T11:40:23.013Z,38.76
2017-08-23T11:45:25.205Z,39.65
2017-08-23T11:50:27.352Z,39.36
2017-08-23T11:55:29.741Z,39.23
2017-08-23T12:00:32.038Z,38.37
2017-08-23T12:05:34.375Z,39.16
2017-08-23T12:10:36.560Z,38.16
2017-08-23T12:15:38.904Z,38.46
2017-08-23T12:20:41.253Z,36.90
2017-08-23T12:25:43.554Z,36.29
2017-08-23T12:30:45.905Z,36.78
2017-08-23T12:35:48.310Z,38.16
2017-08-23T12:40:50.494Z,37.55
2017-08-23T12:45:52.683Z,37.88
2017-08-23T12:50:55.055Z,37.75
2017-08-23T12:55:57.716Z,37.67
2017-08-23T13:00:59.917Z,37.60
2017-08-23T13:06:02.227Z,37.09
2017-08-23T13:11:04.652Z,37.73
2017-08-23T13:16:06.919Z,38.27
2017-08-23T13:21:09.681Z,38.24
2017-08-23T13:26:13.402Z,38.47
2017-08-23T13:31:15.679Z,37.83
2017-08-23T13:36:17.999Z,38.18
2017-08-23T13:41:20.293Z,37.72
2017-08-23T13:46:22.829Z,38.26
2017-08-23T13:51:29.177Z,38.09
2017-08-23T13:56:36.144Z,38.61
2017-08-23T14:01:38.574Z,37.86
2017-08-23T14:06:41.529Z,37.63
2017-08-23T14:11:43.918Z,37.73
2017-08-23T14:16:46.681Z,36.86
2017-08-23T14:21:52.375Z,37.19
2017-08-23T14:26:57.422Z,37.55
2017-08-23T14:32:04.056Z,36.78
2017-08-23T14:37:10.774Z,36.76
2017-08-23T14:42:17.179Z,36.24
2017-08-23T14:47:23.684Z,36.14
2017-08-23T14:52:25.963Z,36.30
2017-08-23T14:57:28.594Z,37.11
2017-08-23T15:02:32.335Z,37.05
2017-08-23T15:07:35.112Z,37.39
2017-08-23T15:12:40.227Z,36.57
2017-08-23T15:17:42.552Z,37.39
2017-08-23T15:22:47.473Z,37.06
2017-08-23T15:27:50.031Z,37.37
2017-08-23T15:32:52.632Z,37.71
2017-08-23T15:37:54.893Z,38.38
2017-08-23T15:42:57.358Z,37.59
2017-08-23T15:47:59.717Z,37.19
2017-08-23T15:53:02.816Z,37.65
2017-08-23T15:58:05.525Z,37.52
2017-08-23T16:03:08.217Z,37.46
2017-08-23T16:08:10.373Z,38.35
2017-08-23T16:13:12.538Z,38.26
2017-08-23T16:18:15.003Z,38.93
2017-08-23T16:23:32.119Z,39.16
2017-08-23T16:28:34.248Z,39.50
2017-08-23T16:33:36.733Z,39.28
2017-08-23T16:38:38.895Z,39.55
2017-08-23T16:43:41.205Z,39.54
2017-08-23T16:48:44.460Z,40.23
2017-08-23T16:53:46.931Z,40.86
2017-08-23T16:58:48.986Z,41.66
2017-08-23T17:03:51.241Z,41.90
2017-08-23T17:08:53.395Z,42.58
2017-08-23T17:13:55.426Z,43.02
2017-08-23T17:18:57.906Z,43.25
2017-08-23T17:24:00.096Z,43.77
2017-08-23T17:29:03.364Z,44.13
2017-08-23T17:34:06.403Z,44.51
2017-08-23T17:39:08.536Z,44.68
2017-08-23T17:44:10.625Z,44.97
2017-08-23T17:49:13.075Z,44.40
2017-08-23T17:54:16.456Z,44.78
2017-08-23T17:59:18.793Z,44.79
2017-08-23T18:04:22.017Z,44.86
2017-08-23T18:09:26.704Z,44.98
2017-08-23T18:14:33.086Z,45.30
2017-08-23T18:19:35.607Z,45.12
2017-08-23T18:24:37.686Z,45.25
2017-08-23T18:29:40.256Z,45.22
2017-08-23T18:34:42.263Z,45.39
2017-08-23T18:39:44.199Z,45.45
2017-08-23T18:44:46.183Z,45.00
2017-08-23T18:49:48.821Z,45.27
2017-08-23T18:54:56.414Z,45.45
2017-08-23T18:59:58.748Z,45.24
2017-08-23T19:05:03.780Z,45.69
2017-08-23T19:10:10.653Z,45.90
2017-08-23T19:15:14.260Z,46.26
2017-08-23T19:20:19.966Z,46.46
2017-08-23T19:25:25.337Z,46.55
2017-08-23T19:30:29.412Z,46.83
2017-08-23T19:35:32.365Z,47.05
2017-08-23T19:40:36.497Z,47.29
2017-08-23T19:45:39.974Z,47.48
2017-08-23T19:50:42.652Z,47.80
2017-08-23T19:55:49.697Z,48.70
2017-08-23T20:00:53.585Z,49.44
2017-08-23T20:05:56.307Z,49.79
2017-08-23T20:10:59.199Z,50.44
2017-08-23T20:16:06.348Z,51.24
2017-08-23T20:21:15.848Z,51.69
2017-08-23T20:26:20.954Z,52.17
2017-08-23T20:31:23.734Z,52.47
2017-08-23T20:36:26.738Z,52.11
2017-08-23T20:41:32.513Z,52.26
2017-08-23T20:46:40.270Z,53.24
2017-08-23T20:51:45.430Z,53.38
2017-08-23T20:56:49.458Z,53.53
2017-08-23T21:01:51.766Z,53.94
2017-08-23T21:06:54.126Z,54.02
2017-08-23T21:11:56.449Z,54.45
2017-08-23T21:16:58.881Z,54.75
2017-08-23T21:22:00.837Z,54.47
2017-08-23T21:27:02.768Z,54.58
2017-08-23T21:32:05.326Z,54.19
2017-08-23T21:37:07.286Z,53.96
2017-08-23T21:42:09.232Z,53.62
2017-08-23T21:47:11.157Z,53.45
2017-08-23T21:52:13.104Z,53.40
2017-08-23T21:57:15.101Z,53.68
2017-08-23T22:02:17.123Z,53.56
2017-08-23T22:07:19.058Z,53.96
2017-08-23T22:12:21.075Z,53.74
2017-08-23T22:17:23.108Z,54.03
2017-08-23T22:22:25.034Z,53.46
2017-08-23T22:27:26.990Z,53.24
2017-08-23T22:32:28.951Z,53.49
2017-08-23T22:37:30.871Z,53.81
2017-08-23T22:42:32.838Z,53.62
2017-08-23T22:47:34.846Z,53.85
2017-08-23T22:52:36.782Z,54.16
2017-08-23T22:57:39.122Z,54.66
2017-08-23T23:02:41.646Z,55.10
2017-08-23T23:07:44.267Z,55.24
2017-08-23T23:12:46.962Z,55.73
2017-08-23T23:17:49.610Z,56.20
2017-08-23T23:22:51.541Z,56.50
2017-08-23T23:27:53.467Z,56.72
2017-08-23T23:32:55.397Z,57.03
2017-08-23T23:37:57.939Z,57.68
2017-08-23T23:42:59.843Z,58.28
2017-08-23T23:48:01.750Z,58.26
2017-08-23T23:53:03.704Z,58.58
2017-08-23T23:58:06.079Z,58.94
